Aviation Digital Data Service (ADDS)

Output produced by METARs form (1827 UTC 23 January 2019)
found at http://aviationweather.gov/metar/data/
 
KBTR 231738Z 2318/2418 30010KT 5SM -SHRA BKN008 OVC020 
     TEMPO 2322/2324 2SM RA BR 
     FM240100 30009KT P6SM OVC020 
     FM240500 30009KT P6SM SCT020 OVC050 
     FM240800 29005KT P6SM SCT100